Baltimore, Maryland
Traffic Map
Current Weather Conditions
Baltimore, Maryland
Few Clouds
Few Clouds

Feels Like: 7°
Wind Chill: Ceiling: Unl
Heat Index: Visibility: 10mi
Dew Point: Wind: 0mph
Humidity: 76% Direction: ° ()
Pressure: 30.31in Gusts: 0mph
Raw Report DataKBWI 281254Z 00000KT 10SM FEW100 FEW240 07/03 A3031 RMK AO2 SLP264 T00720033
Traffic Incident Summary
Active as of:
Severity:
Category:
InformationThere was an issue retrieving the traffic information for this location. Please try a different location or try again shortly.
Advertisements
Track Severe Weather on mobile